sensor_id;sensor_type;location;lat;lon;timestamp;noise_LAeq;noise_LA_min;noise_LA_max;noise_LA01;noise_LA95
49568;Laerm;35474;51.032;6.998;2023-07-24T00:00:34;45.48;43.44;60.57;;
49568;Laerm;35474;51.032;6.998;2023-07-24T00:03:02;44.81;42.88;49.93;;
49568;Laerm;35474;51.032;6.998;2023-07-24T00:05:29;56.38;42.65;74.44;;
49568;Laerm;35474;51.032;6.998;2023-07-24T00:07:55;48.24;43.72;60.00;;
49568;Laerm;35474;51.032;6.998;2023-07-24T00:10:22;45.75;43.44;54.01;;
49568;Laerm;35474;51.032;6.998;2023-07-24T00:12:49;54.01;43.49;68.55;;
49568;Laerm;35474;51.032;6.998;2023-07-24T00:15:15;46.27;44.07;53.58;;
49568;Laerm;35474;51.032;6.998;2023-07-24T00:17:42;55.51;43.72;68.67;;
49568;Laerm;35474;51.032;6.998;2023-07-24T00:20:09;45.49;43.42;59.95;;
49568;Laerm;35474;51.032;6.998;2023-07-24T00:22:35;46.10;44.11;56.42;;
49568;Laerm;35474;51.032;6.998;2023-07-24T00:25:02;45.50;43.49;52.32;;
49568;Laerm;35474;51.032;6.998;2023-07-24T00:27:28;47.89;44.19;57.22;;
49568;Laerm;35474;51.032;6.998;2023-07-24T00:29:55;48.52;42.90;65.44;;
49568;Laerm;35474;51.032;6.998;2023-07-24T00:32:21;47.33;43.94;63.17;;
49568;Laerm;35474;51.032;6.998;2023-07-24T00:34:48;47.09;43.68;66.23;;
49568;Laerm;35474;51.032;6.998;2023-07-24T00:37:15;56.44;43.54;69.60;;
49568;Laerm;35474;51.032;6.998;2023-07-24T00:39:42;46.61;44.27;52.08;;
49568;Laerm;35474;51.032;6.998;2023-07-24T00:42:08;51.13;44.51;66.33;;
49568;Laerm;35474;51.032;6.998;2023-07-24T00:44:35;48.25;44.47;59.84;;
49568;Laerm;35474;51.032;6.998;2023-07-24T00:47:01;56.03;44.39;72.80;;
49568;Laerm;35474;51.032;6.998;2023-07-24T00:49:28;46.13;43.86;57.02;;
49568;Laerm;35474;51.032;6.998;2023-07-24T00:51:56;55.03;43.81;69.81;;
49568;Laerm;35474;51.032;6.998;2023-07-24T00:54:23;46.69;43.09;61.82;;
49568;Laerm;35474;51.032;6.998;2023-07-24T00:56:50;52.25;43.54;67.49;;
49568;Laerm;35474;51.032;6.998;2023-07-24T00:59:16;49.44;43.14;74.15;;
49568;Laerm;35474;51.032;6.998;2023-07-24T01:01:44;51.35;44.11;66.12;;
49568;Laerm;35474;51.032;6.998;2023-07-24T01:04:11;48.72;43.24;62.28;;
49568;Laerm;35474;51.032;6.998;2023-07-24T01:06:37;48.75;44.69;59.80;;
49568;Laerm;35474;51.032;6.998;2023-07-24T01:09:03;48.46;44.65;58.58;;
49568;Laerm;35474;51.032;6.998;2023-07-24T01:11:38;50.42;44.90;64.12;;
49568;Laerm;35474;51.032;6.998;2023-07-24T01:14:18;52.14;43.99;65.08;;
49568;Laerm;35474;51.032;6.998;2023-07-24T01:16:46;51.67;44.11;64.47;;
49568;Laerm;35474;51.032;6.998;2023-07-24T01:19:39;51.64;44.43;66.34;;
49568;Laerm;35474;51.032;6.998;2023-07-24T01:25:05;55.00;44.76;67.45;;
49568;Laerm;35474;51.032;6.998;2023-07-24T01:27:41;51.94;44.87;65.28;;
49568;Laerm;35474;51.032;6.998;2023-07-24T01:30:08;51.27;44.90;63.73;;
49568;Laerm;35474;51.032;6.998;2023-07-24T01:32:34;47.00;44.27;55.54;;
49568;Laerm;35474;51.032;6.998;2023-07-24T01:35:01;55.41;44.62;69.04;;
49568;Laerm;35474;51.032;6.998;2023-07-24T01:37:27;47.74;44.80;54.13;;
49568;Laerm;35474;51.032;6.998;2023-07-24T01:39:55;52.88;44.73;65.15;;
49568;Laerm;35474;51.032;6.998;2023-07-24T01:42:24;48.72;44.03;60.63;;
49568;Laerm;35474;51.032;6.998;2023-07-24T01:44:53;47.06;44.31;52.45;;
49568;Laerm;35474;51.032;6.998;2023-07-24T01:47:20;58.62;43.99;74.36;;
49568;Laerm;35474;51.032;6.998;2023-07-24T01:49:46;48.69;45.01;63.81;;
49568;Laerm;35474;51.032;6.998;2023-07-24T01:52:13;53.17;44.80;67.49;;
49568;Laerm;35474;51.032;6.998;2023-07-24T01:54:40;55.18;45.33;68.41;;
49568;Laerm;35474;51.032;6.998;2023-07-24T01:57:07;47.59;44.27;55.52;;
49568;Laerm;35474;51.032;6.998;2023-07-24T01:59:33;54.37;44.90;67.66;;
49568;Laerm;35474;51.032;6.998;2023-07-24T02:02:00;52.06;44.45;66.52;;
49568;Laerm;35474;51.032;6.998;2023-07-24T02:04:26;50.95;44.98;68.31;;
49568;Laerm;35474;51.032;6.998;2023-07-24T02:06:53;56.64;45.11;81.84;;
49568;Laerm;35474;51.032;6.998;2023-07-24T02:09:20;51.56;44.65;74.64;;
49568;Laerm;35474;51.032;6.998;2023-07-24T02:11:47;58.81;43.63;79.21;;
49568;Laerm;35474;51.032;6.998;2023-07-24T02:14:14;54.02;45.69;65.02;;
49568;Laerm;35474;51.032;6.998;2023-07-24T02:16:40;58.08;45.04;73.08;;
49568;Laerm;35474;51.032;6.998;2023-07-24T02:19:07;59.06;44.03;80.49;;
49568;Laerm;35474;51.032;6.998;2023-07-24T02:21:34;58.12;45.77;70.96;;
49568;Laerm;35474;51.032;6.998;2023-07-24T02:24:01;54.89;45.66;67.88;;
49568;Laerm;35474;51.032;6.998;2023-07-24T02:26:27;56.45;44.72;79.80;;
49568;Laerm;35474;51.032;6.998;2023-07-24T02:28:54;55.45;47.02;79.11;;
49568;Laerm;35474;51.032;6.998;2023-07-24T02:31:20;56.90;48.31;75.79;;
49568;Laerm;35474;51.032;6.998;2023-07-24T02:33:47;56.41;48.26;84.48;;
49568;Laerm;35474;51.032;6.998;2023-07-24T02:36:14;57.81;48.99;70.87;;
49568;Laerm;35474;51.032;6.998;2023-07-24T02:38:41;54.94;49.46;78.10;;
49568;Laerm;35474;51.032;6.998;2023-07-24T02:41:07;62.65;48.03;88.76;;
49568;Laerm;35474;51.032;6.998;2023-07-24T02:43:34;53.29;45.94;66.41;;
49568;Laerm;35474;51.032;6.998;2023-07-24T02:46:03;56.64;46.13;77.70;;
49568;Laerm;35474;51.032;6.998;2023-07-24T02:48:30;61.46;46.05;74.52;;
49568;Laerm;35474;51.032;6.998;2023-07-24T02:50:56;55.40;45.83;67.91;;
49568;Laerm;35474;51.032;6.998;2023-07-24T02:53:23;55.98;45.60;67.65;;
49568;Laerm;35474;51.032;6.998;2023-07-24T02:55:49;61.18;47.02;71.62;;
49568;Laerm;35474;51.032;6.998;2023-07-24T02:58:16;55.66;46.02;66.87;;
49568;Laerm;35474;51.032;6.998;2023-07-24T03:00:42;56.27;45.80;71.18;;
49568;Laerm;35474;51.032;6.998;2023-07-24T03:03:09;57.67;45.69;73.42;;
49568;Laerm;35474;51.032;6.998;2023-07-24T03:05:36;53.93;45.66;75.90;;
49568;Laerm;35474;51.032;6.998;2023-07-24T03:08:04;63.78;47.02;74.79;;
49568;Laerm;35474;51.032;6.998;2023-07-24T03:10:30;60.55;46.87;70.30;;
49568;Laerm;35474;51.032;6.998;2023-07-24T03:12:57;58.75;46.50;69.71;;
49568;Laerm;35474;51.032;6.998;2023-07-24T03:15:23;53.84;45.60;65.18;;
49568;Laerm;35474;51.032;6.998;2023-07-24T03:17:50;59.33;47.32;69.14;;
49568;Laerm;35474;51.032;6.998;2023-07-24T03:20:18;57.45;46.78;69.02;;
49568;Laerm;35474;51.032;6.998;2023-07-24T03:22:45;60.26;47.70;70.27;;
49568;Laerm;35474;51.032;6.998;2023-07-24T03:25:11;59.68;47.06;69.54;;
49568;Laerm;35474;51.032;6.998;2023-07-24T03:27:38;62.83;47.16;72.94;;
49568;Laerm;35474;51.032;6.998;2023-07-24T03:30:05;60.43;46.27;70.69;;
49568;Laerm;35474;51.032;6.998;2023-07-24T03:32:32;63.33;49.34;71.70;;
49568;Laerm;35474;51.032;6.998;2023-07-24T03:34:58;60.80;48.28;71.06;;
49568;Laerm;35474;51.032;6.998;2023-07-24T03:37:25;61.36;48.02;70.55;;
49568;Laerm;35474;51.032;6.998;2023-07-24T03:39:51;61.76;48.00;71.38;;
49568;Laerm;35474;51.032;6.998;2023-07-24T03:42:29;62.67;47.50;72.02;;
49568;Laerm;35474;51.032;6.998;2023-07-24T03:44:57;62.69;49.44;73.24;;
49568;Laerm;35474;51.032;6.998;2023-07-24T03:47:24;63.60;47.90;71.68;;
49568;Laerm;35474;51.032;6.998;2023-07-24T03:49:51;62.42;48.34;70.78;;
49568;Laerm;35474;51.032;6.998;2023-07-24T03:52:17;64.10;47.70;74.05;;
49568;Laerm;35474;51.032;6.998;2023-07-24T03:54:44;63.66;49.65;72.28;;
49568;Laerm;35474;51.032;6.998;2023-07-24T03:57:11;62.05;46.50;72.11;;
49568;Laerm;35474;51.032;6.998;2023-07-24T03:59:37;57.77;47.10;69.85;;
49568;Laerm;35474;51.032;6.998;2023-07-24T04:02:04;62.80;48.20;71.49;;
49568;Laerm;35474;51.032;6.998;2023-07-24T04:04:34;62.99;48.31;71.27;;
49568;Laerm;35474;51.032;6.998;2023-07-24T04:07:01;62.93;47.54;73.59;;
49568;Laerm;35474;51.032;6.998;2023-07-24T04:09:28;60.24;48.71;68.67;;
49568;Laerm;35474;51.032;6.998;2023-07-24T04:11:54;62.05;46.80;71.09;;
49568;Laerm;35474;51.032;6.998;2023-07-24T04:14:21;64.44;48.07;72.97;;
49568;Laerm;35474;51.032;6.998;2023-07-24T04:16:48;61.99;48.32;72.34;;
49568;Laerm;35474;51.032;6.998;2023-07-24T04:19:14;63.08;48.85;73.30;;
49568;Laerm;35474;51.032;6.998;2023-07-24T04:21:41;62.03;48.70;71.92;;
49568;Laerm;35474;51.032;6.998;2023-07-24T04:24:07;63.40;48.67;74.50;;
49568;Laerm;35474;51.032;6.998;2023-07-24T04:26:34;63.49;49.21;73.10;;
49568;Laerm;35474;51.032;6.998;2023-07-24T04:29:03;65.10;48.95;74.09;;
49568;Laerm;35474;51.032;6.998;2023-07-24T04:31:30;64.58;47.88;72.24;;
49568;Laerm;35474;51.032;6.998;2023-07-24T04:33:56;63.86;48.64;69.62;;
49568;Laerm;35474;51.032;6.998;2023-07-24T04:36:23;62.43;48.67;73.92;;
49568;Laerm;35474;51.032;6.998;2023-07-24T04:38:49;63.87;47.22;72.65;;
49568;Laerm;35474;51.032;6.998;2023-07-24T04:41:16;63.72;47.76;72.00;;
49568;Laerm;35474;51.032;6.998;2023-07-24T04:43:43;65.27;50.76;74.29;;
49568;Laerm;35474;51.032;6.998;2023-07-24T04:46:09;65.11;51.25;72.17;;
49568;Laerm;35474;51.032;6.998;2023-07-24T04:48:36;65.03;51.25;73.98;;
49568;Laerm;35474;51.032;6.998;2023-07-24T04:51:03;65.00;50.77;71.75;;
49568;Laerm;35474;51.032;6.998;2023-07-24T04:53:29;63.99;47.41;72.13;;
49568;Laerm;35474;51.032;6.998;2023-07-24T04:55:56;62.43;49.40;70.54;;
49568;Laerm;35474;51.032;6.998;2023-07-24T04:58:22;63.17;47.00;72.13;;
49568;Laerm;35474;51.032;6.998;2023-07-24T05:00:49;61.85;49.69;69.22;;
49568;Laerm;35474;51.032;6.998;2023-07-24T05:03:15;63.34;48.13;73.09;;
49568;Laerm;35474;51.032;6.998;2023-07-24T05:05:43;64.56;50.23;77.16;;
49568;Laerm;35474;51.032;6.998;2023-07-24T05:08:13;64.02;49.78;72.25;;
49568;Laerm;35474;51.032;6.998;2023-07-24T05:10:40;65.17;48.77;75.24;;
49568;Laerm;35474;51.032;6.998;2023-07-24T05:13:06;63.91;50.92;83.08;;
49568;Laerm;35474;51.032;6.998;2023-07-24T05:15:33;64.35;51.49;74.38;;
49568;Laerm;35474;51.032;6.998;2023-07-24T05:17:59;64.03;46.66;83.88;;
49568;Laerm;35474;51.032;6.998;2023-07-24T05:20:26;65.47;50.49;80.42;;
49568;Laerm;35474;51.032;6.998;2023-07-24T05:22:53;64.63;49.30;71.61;;
49568;Laerm;35474;51.032;6.998;2023-07-24T05:25:19;66.22;50.85;76.51;;
49568;Laerm;35474;51.032;6.998;2023-07-24T05:27:46;63.47;50.88;74.14;;
49568;Laerm;35474;51.032;6.998;2023-07-24T05:30:12;65.36;48.70;79.74;;
49568;Laerm;35474;51.032;6.998;2023-07-24T05:32:39;65.38;49.80;74.95;;
49568;Laerm;35474;51.032;6.998;2023-07-24T05:35:05;64.55;50.19;83.44;;
49568;Laerm;35474;51.032;6.998;2023-07-24T05:37:32;63.78;51.92;81.34;;
49568;Laerm;35474;51.032;6.998;2023-07-24T05:39:59;65.20;48.52;79.38;;
49568;Laerm;35474;51.032;6.998;2023-07-24T05:42:25;64.67;49.67;77.05;;
49568;Laerm;35474;51.032;6.998;2023-07-24T05:44:52;64.37;51.60;79.23;;
49568;Laerm;35474;51.032;6.998;2023-07-24T05:47:18;65.51;48.44;78.06;;
49568;Laerm;35474;51.032;6.998;2023-07-24T05:49:44;66.08;48.69;89.35;;
49568;Laerm;35474;51.032;6.998;2023-07-24T05:52:11;65.68;49.65;85.02;;
49568;Laerm;35474;51.032;6.998;2023-07-24T05:54:38;65.00;47.98;81.35;;
49568;Laerm;35474;51.032;6.998;2023-07-24T05:57:05;65.76;52.06;90.45;;
49568;Laerm;35474;51.032;6.998;2023-07-24T05:59:31;68.08;47.86;85.61;;
49568;Laerm;35474;51.032;6.998;2023-07-24T06:01:58;65.38;47.52;89.32;;
49568;Laerm;35474;51.032;6.998;2023-07-24T06:04:24;67.48;48.91;90.20;;
49568;Laerm;35474;51.032;6.998;2023-07-24T06:06:51;64.70;46.02;89.30;;
49568;Laerm;35474;51.032;6.998;2023-07-24T06:09:17;61.71;46.38;72.47;;
49568;Laerm;35474;51.032;6.998;2023-07-24T06:11:47;67.39;46.62;87.96;;
49568;Laerm;35474;51.032;6.998;2023-07-24T06:14:14;73.88;55.09;101.21;;
49568;Laerm;35474;51.032;6.998;2023-07-24T06:16:40;65.30;52.67;85.17;;
49568;Laerm;35474;51.032;6.998;2023-07-24T06:19:07;72.36;50.11;97.40;;
49568;Laerm;35474;51.032;6.998;2023-07-24T06:21:33;67.57;52.47;89.74;;
49568;Laerm;35474;51.032;6.998;2023-07-24T06:24:00;63.79;50.94;81.31;;
49568;Laerm;35474;51.032;6.998;2023-07-24T06:26:26;68.91;50.74;89.70;;
49568;Laerm;35474;51.032;6.998;2023-07-24T06:28:54;64.21;48.08;80.56;;
49568;Laerm;35474;51.032;6.998;2023-07-24T06:32:33;72.89;56.62;98.80;;
49568;Laerm;35474;51.032;6.998;2023-07-24T06:34:59;73.26;49.90;92.35;;
49568;Laerm;35474;51.032;6.998;2023-07-24T06:37:26;75.27;54.64;98.17;;
49568;Laerm;35474;51.032;6.998;2023-07-24T06:39:52;69.39;46.10;90.65;;
49568;Laerm;35474;51.032;6.998;2023-07-24T06:42:19;65.85;48.98;88.63;;
49568;Laerm;35474;51.032;6.998;2023-07-24T06:44:45;64.71;52.28;77.45;;
49568;Laerm;35474;51.032;6.998;2023-07-24T06:47:12;66.24;52.86;81.89;;
49568;Laerm;35474;51.032;6.998;2023-07-24T06:49:38;67.96;48.64;87.83;;
49568;Laerm;35474;51.032;6.998;2023-07-24T06:52:05;77.10;51.64;97.66;;
49568;Laerm;35474;51.032;6.998;2023-07-24T06:54:31;69.95;56.37;89.24;;
49568;Laerm;35474;51.032;6.998;2023-07-24T06:56:58;67.53;51.62;85.23;;
49568;Laerm;35474;51.032;6.998;2023-07-24T06:59:24;65.88;54.23;86.00;;
49568;Laerm;35474;51.032;6.998;2023-07-24T07:02:09;66.18;46.58;83.43;;
49568;Laerm;35474;51.032;6.998;2023-07-24T07:04:50;64.02;50.70;81.78;;
49568;Laerm;35474;51.032;6.998;2023-07-24T07:07:16;69.41;46.50;92.62;;
49568;Laerm;35474;51.032;6.998;2023-07-24T07:09:42;67.87;50.29;84.69;;
49568;Laerm;35474;51.032;6.998;2023-07-24T07:12:09;72.23;50.71;91.22;;
49568;Laerm;35474;51.032;6.998;2023-07-24T07:14:35;69.91;51.68;94.20;;
49568;Laerm;35474;51.032;6.998;2023-07-24T07:17:02;67.69;45.36;89.32;;
49568;Laerm;35474;51.032;6.998;2023-07-24T07:19:29;64.24;47.74;81.17;;
49568;Laerm;35474;51.032;6.998;2023-07-24T07:21:55;64.59;46.30;84.40;;
49568;Laerm;35474;51.032;6.998;2023-07-24T07:24:22;73.63;44.83;97.49;;
49568;Laerm;35474;51.032;6.998;2023-07-24T07:26:48;72.37;45.39;94.68;;
49568;Laerm;35474;51.032;6.998;2023-07-24T07:29:15;76.35;47.00;94.66;;
49568;Laerm;35474;51.032;6.998;2023-07-24T07:31:42;75.01;46.28;94.81;;
49568;Laerm;35474;51.032;6.998;2023-07-24T07:34:08;65.77;46.48;89.00;;
49568;Laerm;35474;51.032;6.998;2023-07-24T07:36:35;66.34;51.83;86.61;;
49568;Laerm;35474;51.032;6.998;2023-07-24T07:39:01;67.14;52.72;86.38;;
49568;Laerm;35474;51.032;6.998;2023-07-24T07:41:28;79.13;53.50;104.60;;
49568;Laerm;35474;51.032;6.998;2023-07-24T07:43:55;82.19;61.31;104.01;;
49568;Laerm;35474;51.032;6.998;2023-07-24T07:46:21;77.64;52.82;98.01;;
49568;Laerm;35474;51.032;6.998;2023-07-24T07:48:48;73.44;49.28;93.20;;
49568;Laerm;35474;51.032;6.998;2023-07-24T07:51:15;77.64;59.07;96.87;;
49568;Laerm;35474;51.032;6.998;2023-07-24T07:53:42;76.32;52.86;99.34;;
49568;Laerm;35474;51.032;6.998;2023-07-24T07:56:08;75.98;56.53;99.44;;
49568;Laerm;35474;51.032;6.998;2023-07-24T07:58:35;72.64;55.28;95.01;;
49568;Laerm;35474;51.032;6.998;2023-07-24T08:01:05;73.46;51.18;95.87;;
49568;Laerm;35474;51.032;6.998;2023-07-24T08:03:32;70.85;49.14;90.07;;
49568;Laerm;35474;51.032;6.998;2023-07-24T08:05:59;69.32;53.79;91.54;;
49568;Laerm;35474;51.032;6.998;2023-07-24T08:08:26;69.20;49.36;91.08;;
49568;Laerm;35474;51.032;6.998;2023-07-24T08:10:53;65.54;46.35;85.59;;
49568;Laerm;35474;51.032;6.998;2023-07-24T08:13:19;66.28;55.75;87.41;;
49568;Laerm;35474;51.032;6.998;2023-07-24T08:15:46;70.23;47.00;92.67;;
49568;Laerm;35474;51.032;6.998;2023-07-24T08:18:13;71.64;50.43;93.47;;
49568;Laerm;35474;51.032;6.998;2023-07-24T08:20:39;64.96;54.17;81.41;;
49568;Laerm;35474;51.032;6.998;2023-07-24T08:23:06;65.28;47.36;88.92;;
49568;Laerm;35474;51.032;6.998;2023-07-24T08:25:33;69.17;48.37;89.94;;
49568;Laerm;35474;51.032;6.998;2023-07-24T08:27:59;69.23;51.69;88.71;;
49568;Laerm;35474;51.032;6.998;2023-07-24T08:30:32;65.13;49.69;80.40;;
49568;Laerm;35474;51.032;6.998;2023-07-24T08:32:59;68.19;48.84;91.60;;
49568;Laerm;35474;51.032;6.998;2023-07-24T08:35:26;65.68;47.54;85.14;;
49568;Laerm;35474;51.032;6.998;2023-07-24T08:37:53;64.59;47.93;78.48;;
49568;Laerm;35474;51.032;6.998;2023-07-24T08:40:19;66.59;48.55;90.85;;
49568;Laerm;35474;51.032;6.998;2023-07-24T08:42:49;71.15;49.06;90.97;;
49568;Laerm;35474;51.032;6.998;2023-07-24T08:45:16;69.81;48.87;92.19;;
49568;Laerm;35474;51.032;6.998;2023-07-24T08:47:43;68.83;44.58;92.24;;
49568;Laerm;35474;51.032;6.998;2023-07-24T08:50:11;66.51;54.31;80.01;;
49568;Laerm;35474;51.032;6.998;2023-07-24T08:52:39;66.12;56.44;84.59;;
49568;Laerm;35474;51.032;6.998;2023-07-24T08:55:06;64.93;58.04;81.07;;
49568;Laerm;35474;51.032;6.998;2023-07-24T08:57:33;64.95;57.10;78.65;;
49568;Laerm;35474;51.032;6.998;2023-07-24T08:59:59;65.72;57.51;83.30;;
49568;Laerm;35474;51.032;6.998;2023-07-24T09:02:34;66.20;58.08;84.74;;
49568;Laerm;35474;51.032;6.998;2023-07-24T09:05:02;66.26;58.97;87.09;;
49568;Laerm;35474;51.032;6.998;2023-07-24T09:07:30;67.74;57.36;87.55;;
49568;Laerm;35474;51.032;6.998;2023-07-24T09:09:57;71.15;58.32;82.27;;
49568;Laerm;35474;51.032;6.998;2023-07-24T09:12:23;75.24;60.51;100.10;;
49568;Laerm;35474;51.032;6.998;2023-07-24T09:15:03;73.28;60.52;95.87;;
49568;Laerm;35474;51.032;6.998;2023-07-24T09:17:32;74.30;60.08;98.91;;
49568;Laerm;35474;51.032;6.998;2023-07-24T09:19:59;71.66;57.13;92.58;;
49568;Laerm;35474;51.032;6.998;2023-07-24T09:22:26;67.67;57.64;92.04;;
49568;Laerm;35474;51.032;6.998;2023-07-24T09:24:55;66.80;58.24;82.26;;
49568;Laerm;35474;51.032;6.998;2023-07-24T09:27:26;68.36;58.20;86.89;;
49568;Laerm;35474;51.032;6.998;2023-07-24T09:29:54;65.18;57.36;74.03;;
49568;Laerm;35474;51.032;6.998;2023-07-24T09:32:26;67.58;57.83;89.50;;
49568;Laerm;35474;51.032;6.998;2023-07-24T09:34:53;67.97;59.17;84.15;;
49568;Laerm;35474;51.032;6.998;2023-07-24T09:39:50;65.60;45.63;81.10;;
49568;Laerm;35474;51.032;6.998;2023-07-24T09:42:30;69.70;46.25;92.64;;
49568;Laerm;35474;51.032;6.998;2023-07-24T09:44:57;65.32;47.16;86.12;;
49568;Laerm;35474;51.032;6.998;2023-07-24T09:47:23;67.32;49.59;90.32;;
49568;Laerm;35474;51.032;6.998;2023-07-24T09:50:10;67.92;54.14;89.51;;
49568;Laerm;35474;51.032;6.998;2023-07-24T09:52:40;66.76;52.70;85.76;;
49568;Laerm;35474;51.032;6.998;2023-07-24T09:55:12;67.75;49.45;86.64;;
49568;Laerm;35474;51.032;6.998;2023-07-24T09:57:44;67.64;47.46;89.41;;
49568;Laerm;35474;51.032;6.998;2023-07-24T10:00:11;68.03;49.07;86.53;;
49568;Laerm;35474;51.032;6.998;2023-07-24T10:02:39;65.97;47.52;83.39;;
49568;Laerm;35474;51.032;6.998;2023-07-24T10:05:08;67.92;58.93;86.12;;
49568;Laerm;35474;51.032;6.998;2023-07-24T10:07:35;66.48;57.31;79.08;;
49568;Laerm;35474;51.032;6.998;2023-07-24T10:10:02;66.28;57.50;79.76;;
49568;Laerm;35474;51.032;6.998;2023-07-24T10:12:29;67.80;58.45;85.74;;
49568;Laerm;35474;51.032;6.998;2023-07-24T10:14:58;65.81;58.74;76.17;;
49568;Laerm;35474;51.032;6.998;2023-07-24T10:17:38;66.16;59.90;79.31;;
49568;Laerm;35474;51.032;6.998;2023-07-24T10:20:07;65.15;50.39;74.53;;
49568;Laerm;35474;51.032;6.998;2023-07-24T10:22:35;65.77;57.97;76.02;;
49568;Laerm;35474;51.032;6.998;2023-07-24T10:25:04;66.48;58.43;77.82;;
49568;Laerm;35474;51.032;6.998;2023-07-24T10:27:35;65.70;57.80;76.85;;
49568;Laerm;35474;51.032;6.998;2023-07-24T10:30:04;67.17;61.26;79.71;;
49568;Laerm;35474;51.032;6.998;2023-07-24T10:32:48;67.62;58.22;84.37;;
49568;Laerm;35474;51.032;6.998;2023-07-24T10:35:20;68.04;61.92;82.20;;
49568;Laerm;35474;51.032;6.998;2023-07-24T10:37:59;67.88;61.79;81.76;;
49568;Laerm;35474;51.032;6.998;2023-07-24T10:40:25;68.22;62.03;87.48;;
49568;Laerm;35474;51.032;6.998;2023-07-24T10:43:06;68.88;61.74;88.80;;
49568;Laerm;35474;51.032;6.998;2023-07-24T10:45:52;70.96;57.16;86.51;;
49568;Laerm;35474;51.032;6.998;2023-07-24T10:48:20;68.78;49.91;80.96;;
49568;Laerm;35474;51.032;6.998;2023-07-24T10:50:49;62.95;51.17;69.57;;
49568;Laerm;35474;51.032;6.998;2023-07-24T10:53:21;63.32;45.94;74.36;;
49568;Laerm;35474;51.032;6.998;2023-07-24T10:55:48;64.99;47.84;75.03;;
49568;Laerm;35474;51.032;6.998;2023-07-24T10:58:14;65.15;50.23;76.77;;
49568;Laerm;35474;51.032;6.998;2023-07-24T11:00:44;63.35;43.68;71.66;;
49568;Laerm;35474;51.032;6.998;2023-07-24T11:03:12;63.78;44.23;70.57;;
49568;Laerm;35474;51.032;6.998;2023-07-24T11:05:43;63.71;45.97;72.79;;
49568;Laerm;35474;51.032;6.998;2023-07-24T11:08:11;64.17;45.04;70.64;;
49568;Laerm;35474;51.032;6.998;2023-07-24T11:10:48;63.01;44.94;69.40;;
49568;Laerm;35474;51.032;6.998;2023-07-24T11:13:24;62.98;53.34;69.39;;
49568;Laerm;35474;51.032;6.998;2023-07-24T11:15:51;65.57;51.82;79.81;;
49568;Laerm;35474;51.032;6.998;2023-07-24T11:18:19;63.13;46.40;74.19;;
49568;Laerm;35474;51.032;6.998;2023-07-24T11:21:03;65.09;46.20;70.63;;
49568;Laerm;35474;51.032;6.998;2023-07-24T11:23:29;64.73;48.51;77.65;;
49568;Laerm;35474;51.032;6.998;2023-07-24T11:25:56;69.68;58.11;87.09;;
49568;Laerm;35474;51.032;6.998;2023-07-24T11:28:25;69.36;57.93;86.07;;
49568;Laerm;35474;51.032;6.998;2023-07-24T11:30:52;66.80;57.73;81.08;;
49568;Laerm;35474;51.032;6.998;2023-07-24T11:33:18;66.62;54.41;79.61;;
49568;Laerm;35474;51.032;6.998;2023-07-24T11:35:45;67.28;55.66;81.77;;
49568;Laerm;35474;51.032;6.998;2023-07-24T11:38:13;66.19;52.61;78.87;;
49568;Laerm;35474;51.032;6.998;2023-07-24T11:40:41;69.86;45.60;81.30;;
49568;Laerm;35474;51.032;6.998;2023-07-24T11:43:24;67.34;49.19;76.73;;
49568;Laerm;35474;51.032;6.998;2023-07-24T11:45:52;67.86;60.32;82.48;;
49568;Laerm;35474;51.032;6.998;2023-07-24T11:48:23;67.76;61.00;82.79;;
49568;Laerm;35474;51.032;6.998;2023-07-24T11:50:52;82.87;62.67;102.05;;
49568;Laerm;35474;51.032;6.998;2023-07-24T11:53:24;89.93;66.37;108.73;;
49568;Laerm;35474;51.032;6.998;2023-07-24T11:55:54;79.69;62.75;100.86;;
49568;Laerm;35474;51.032;6.998;2023-07-24T11:58:22;72.80;63.32;89.80;;
49568;Laerm;35474;51.032;6.998;2023-07-24T12:00:49;68.92;55.86;81.45;;
49568;Laerm;35474;51.032;6.998;2023-07-24T12:03:26;69.60;52.42;91.31;;
49568;Laerm;35474;51.032;6.998;2023-07-24T12:05:53;73.13;53.86;93.79;;
49568;Laerm;35474;51.032;6.998;2023-07-24T12:08:30;70.39;51.37;91.91;;
49568;Laerm;35474;51.032;6.998;2023-07-24T12:10:58;70.90;58.28;90.61;;
49568;Laerm;35474;51.032;6.998;2023-07-24T12:13:24;67.61;52.02;92.58;;
49568;Laerm;35474;51.032;6.998;2023-07-24T12:15:51;77.81;55.37;97.18;;
49568;Laerm;35474;51.032;6.998;2023-07-24T12:18:17;69.14;58.23;80.93;;
49568;Laerm;35474;51.032;6.998;2023-07-24T12:20:45;70.12;55.40;85.20;;
49568;Laerm;35474;51.032;6.998;2023-07-24T12:23:11;68.41;48.92;81.96;;
49568;Laerm;35474;51.032;6.998;2023-07-24T12:25:38;67.07;49.00;83.48;;
49568;Laerm;35474;51.032;6.998;2023-07-24T12:28:04;66.18;51.42;73.73;;
49568;Laerm;35474;51.032;6.998;2023-07-24T12:30:31;66.12;54.21;73.59;;
49568;Laerm;35474;51.032;6.998;2023-07-24T12:32:57;67.40;47.24;73.50;;
49568;Laerm;35474;51.032;6.998;2023-07-24T12:35:24;65.02;43.58;73.59;;
49568;Laerm;35474;51.032;6.998;2023-07-24T12:37:51;66.28;55.51;73.16;;
49568;Laerm;35474;51.032;6.998;2023-07-24T12:40:17;65.65;52.09;79.40;;
49568;Laerm;35474;51.032;6.998;2023-07-24T12:42:44;65.91;44.73;72.63;;
49568;Laerm;35474;51.032;6.998;2023-07-24T12:45:10;65.36;51.33;73.68;;
49568;Laerm;35474;51.032;6.998;2023-07-24T12:47:37;66.36;55.10;77.43;;
49568;Laerm;35474;51.032;6.998;2023-07-24T12:50:03;66.04;53.64;73.80;;
49568;Laerm;35474;51.032;6.998;2023-07-24T12:52:33;65.05;45.48;72.31;;
49568;Laerm;35474;51.032;6.998;2023-07-24T12:55:00;64.58;44.58;71.99;;
49568;Laerm;35474;51.032;6.998;2023-07-24T12:57:28;67.00;50.59;79.50;;
49568;Laerm;35474;51.032;6.998;2023-07-24T12:59:55;64.77;49.27;77.31;;
49568;Laerm;35474;51.032;6.998;2023-07-24T13:02:22;65.21;46.10;77.37;;
49568;Laerm;35474;51.032;6.998;2023-07-24T13:04:48;65.56;47.95;74.27;;
49568;Laerm;35474;51.032;6.998;2023-07-24T13:07:15;65.51;47.68;74.32;;
49568;Laerm;35474;51.032;6.998;2023-07-24T13:09:41;63.74;47.70;73.71;;
49568;Laerm;35474;51.032;6.998;2023-07-24T13:12:08;65.76;52.01;73.08;;
49568;Laerm;35474;51.032;6.998;2023-07-24T13:14:35;66.52;48.15;75.44;;
49568;Laerm;35474;51.032;6.998;2023-07-24T13:17:06;67.55;58.12;76.02;;
49568;Laerm;35474;51.032;6.998;2023-07-24T13:19:33;68.35;52.23;75.94;;
49568;Laerm;35474;51.032;6.998;2023-07-24T13:22:00;68.08;50.02;74.72;;
49568;Laerm;35474;51.032;6.998;2023-07-24T13:24:27;67.98;52.79;79.66;;
49568;Laerm;35474;51.032;6.998;2023-07-24T13:26:53;68.26;52.09;74.34;;
49568;Laerm;35474;51.032;6.998;2023-07-24T13:29:20;69.06;53.29;74.15;;
49568;Laerm;35474;51.032;6.998;2023-07-24T13:31:51;65.69;53.90;71.47;;
49568;Laerm;35474;51.032;6.998;2023-07-24T13:34:18;67.05;51.44;82.83;;
49568;Laerm;35474;51.032;6.998;2023-07-24T13:36:46;68.50;55.87;78.62;;
49568;Laerm;35474;51.032;6.998;2023-07-24T13:39:13;65.97;44.92;77.73;;
49568;Laerm;35474;51.032;6.998;2023-07-24T13:41:40;67.33;52.47;76.82;;
49568;Laerm;35474;51.032;6.998;2023-07-24T13:44:06;67.32;56.23;82.57;;
49568;Laerm;35474;51.032;6.998;2023-07-24T13:46:34;67.28;56.85;81.35;;
49568;Laerm;35474;51.032;6.998;2023-07-24T13:49:04;67.54;59.05;78.93;;
49568;Laerm;35474;51.032;6.998;2023-07-24T13:51:31;69.35;61.84;83.16;;
49568;Laerm;35474;51.032;6.998;2023-07-24T13:53:58;67.80;51.30;94.33;;